Time;durP1;ratioP1;P1;durP2;ratioP2;P2;SDS_P1;SDS_P2;PMS_P1;PMS_P2;Temp;Humidity;BMP_temperature;BMP_pressure;BME280_temperature;BME280_humidity;BME280_pressure;Samples;Min_cycle;Max_cycle;Signal;HPM_P1;HPM_P2
2021/12/21 00:00:12;;;;;;;10.52;5.63;;;21.70;48.70;;;;;;5182203;28;20053;-59
2021/12/21 00:02:50;;;;;;;9.52;4.82;;;21.60;48.60;;;;;;5179256;28;20056;-58
2021/12/21 00:05:27;;;;;;;10.20;5.38;;;21.60;48.60;;;;;;5183084;28;20049;-59
2021/12/21 00:08:02;;;;;;;9.73;5.30;;;21.60;48.50;;;;;;5185597;28;20088;-58
2021/12/21 00:10:35;;;;;;;9.27;4.75;;;21.60;48.50;;;;;;5181658;28;20041;-59
2021/12/21 00:13:20;;;;;;;9.43;5.07;;;21.70;48.50;;;;;;5185366;28;20480;-59
2021/12/21 00:16:02;;;;;;;7.63;4.53;;;21.70;48.50;;;;;;5181922;28;20057;-59
2021/12/21 00:21:38;;;;;;;7.18;4.32;;;21.70;48.60;;;;;;5155595;28;20053;-58
2021/12/21 00:24:19;;;;;;;7.82;4.75;;;21.70;48.50;;;;;;5181562;28;21259;-59
2021/12/21 00:26:52;;;;;;;8.05;4.55;;;21.60;48.50;;;;;;5187446;28;20049;-59
2021/12/21 00:29:24;;;;;;;8.48;4.15;;;21.60;48.40;;;;;;5182508;28;20057;-59
2021/12/21 00:31:56;;;;;;;7.40;4.40;;;21.70;48.40;;;;;;5179169;28;20042;-59
2021/12/21 00:34:29;;;;;;;8.52;4.30;;;21.70;48.40;;;;;;5187097;28;20507;-59
2021/12/21 00:37:01;;;;;;;10.07;4.88;;;21.60;48.30;;;;;;5180852;28;20400;-59
2021/12/21 00:39:34;;;;;;;7.82;4.68;;;21.60;48.20;;;;;;5183247;28;20060;-59
2021/12/21 00:42:07;;;;;;;10.13;4.63;;;21.60;48.10;;;;;;5179215;28;20312;-59
2021/12/21 00:44:40;;;;;;;8.40;4.65;;;21.60;48.20;;;;;;5184887;28;20712;-59
2021/12/21 00:47:16;;;;;;;6.47;4.13;;;21.60;48.20;;;;;;5181518;28;20048;-59
2021/12/21 00:49:58;;;;;;;7.65;4.60;;;21.60;48.10;;;;;;5184736;28;20052;-58
2021/12/21 00:52:30;;;;;;;8.52;4.35;;;21.60;48.10;;;;;;5174966;28;20048;-59
2021/12/21 00:55:03;;;;;;;8.73;4.80;;;21.70;48.10;;;;;;5182144;28;20041;-59
2021/12/21 00:57:35;;;;;;;8.20;4.27;;;21.60;48.00;;;;;;5181445;28;20049;-59
2021/12/21 01:00:10;;;;;;;9.30;4.35;;;21.60;47.90;;;;;;5174512;28;20545;-59
2021/12/21 01:02:43;;;;;;;7.05;3.90;;;21.60;47.80;;;;;;5174043;28;20048;-59
2021/12/21 01:05:32;;;;;;;9.40;4.00;;;21.60;47.70;;;;;;5182518;28;20041;-59
2021/12/21 01:08:06;;;;;;;8.43;4.82;;;21.60;47.70;;;;;;5170263;28;20688;-58
2021/12/21 01:11:05;;;;;;;6.70;4.18;;;21.60;47.60;;;;;;5177729;28;20449;-59
2021/12/21 01:19:11;;;;;;;5.93;3.78;;;21.60;47.40;;;;;;5184069;28;21244;-58
2021/12/21 01:21:57;;;;;;;6.57;3.58;;;21.60;47.40;;;;;;5188015;28;20041;-59
2021/12/21 01:27:29;;;;;;;7.70;4.20;;;21.60;47.40;;;;;;5183843;28;20045;-58
2021/12/21 01:30:24;;;;;;;7.28;3.40;;;21.60;47.20;;;;;;5187105;28;20052;-59
2021/12/21 01:33:06;;;;;;;6.50;3.28;;;21.60;47.20;;;;;;5186047;28;20060;-56
2021/12/21 01:35:43;;;;;;;7.20;3.90;;;21.50;47.10;;;;;;5189166;28;20054;-59
2021/12/21 01:38:28;;;;;;;9.30;4.13;;;21.60;47.10;;;;;;5185256;28;20042;-59
2021/12/21 01:41:11;;;;;;;8.30;3.72;;;21.60;47.20;;;;;;5186100;28;20049;-59
2021/12/21 01:43:54;;;;;;;6.00;4.07;;;21.50;47.10;;;;;;5186865;28;20057;-59
2021/12/21 01:52:14;;;;;;;8.85;3.72;;;21.50;47.00;;;;;;5185151;28;20056;-59
2021/12/21 01:54:48;;;;;;;7.10;3.40;;;21.50;47.00;;;;;;5183860;28;20052;-59
2021/12/21 01:57:21;;;;;;;9.10;3.50;;;21.50;47.00;;;;;;5185988;28;21032;-59
2021/12/21 01:59:53;;;;;;;6.70;3.35;;;21.50;46.90;;;;;;5182641;28;20045;-59
2021/12/21 02:02:26;;;;;;;8.80;3.65;;;21.50;46.80;;;;;;5180673;28;20045;-59
2021/12/21 02:04:58;;;;;;;8.80;3.50;;;21.50;46.80;;;;;;5188866;28;20049;-60
2021/12/21 02:07:30;;;;;;;5.75;3.30;;;21.50;46.80;;;;;;5191889;28;20056;-54
2021/12/21 02:10:04;;;;;;;5.80;3.03;;;21.50;46.70;;;;;;5185620;28;20256;-59
2021/12/21 02:12:36;;;;;;;9.18;3.78;;;21.50;46.70;;;;;;5184266;28;20046;-59
2021/12/21 02:15:10;;;;;;;7.88;3.72;;;21.50;46.70;;;;;;5178862;28;20068;-57
2021/12/21 02:20:36;;;;;;;6.05;3.78;;;21.50;46.60;;;;;;5182334;28;21243;-59
2021/12/21 02:23:20;;;;;;;12.40;3.30;;;21.50;47.30;;;;;;5182264;28;20049;-59
2021/12/21 02:26:11;;;;;;;5.90;3.33;;;21.50;46.70;;;;;;5183037;28;20501;-57
2021/12/21 02:29:09;;;;;;;5.57;3.10;;;21.50;46.60;;;;;;5175182;28;20061;-59
2021/12/21 02:31:43;;;;;;;5.85;3.60;;;21.50;46.60;;;;;;5181262;28;20080;-59
2021/12/21 02:34:17;;;;;;;5.85;3.67;;;21.50;46.60;;;;;;5185472;28;20048;-58
2021/12/21 02:36:52;;;;;;;5.53;2.75;;;21.50;46.50;;;;;;5185173;28;20420;-58
2021/12/21 02:39:26;;;;;;;8.45;3.75;;;21.50;46.50;;;;;;5184082;28;20579;-59
2021/12/21 02:41:59;;;;;;;6.22;3.17;;;21.50;46.50;;;;;;5183465;28;20050;-58
2021/12/21 02:44:32;;;;;;;5.38;3.05;;;21.50;46.40;;;;;;5183225;28;20049;-59
2021/12/21 02:47:05;;;;;;;7.45;4.38;;;21.50;46.40;;;;;;5183679;28;20042;-56
2021/12/21 02:49:37;;;;;;;5.23;3.33;;;21.50;46.40;;;;;;5178443;28;20504;-59
2021/12/21 02:52:09;;;;;;;3.97;2.60;;;21.50;46.30;;;;;;5173266;28;20304;-57
2021/12/21 02:54:42;;;;;;;6.75;3.10;;;21.50;46.30;;;;;;5177623;28;20064;-59
2021/12/21 02:57:15;;;;;;;6.18;3.10;;;21.40;46.30;;;;;;5184485;28;20052;-59
2021/12/21 02:59:47;;;;;;;5.38;3.30;;;21.40;46.20;;;;;;5180492;28;20065;-57
2021/12/21 03:02:20;;;;;;;5.95;2.88;;;21.50;46.30;;;;;;5179350;28;20485;-60
2021/12/21 03:04:52;;;;;;;5.50;3.28;;;21.40;46.20;;;;;;5177831;28;20041;-59
2021/12/21 03:10:23;;;;;;;4.57;2.92;;;21.50;46.30;;;;;;5181771;28;20843;-59
2021/12/21 03:15:30;;;;;;;5.18;2.58;;;21.50;46.30;;;;;;5182098;28;20045;-59
2021/12/21 03:18:03;;;;;;;5.32;2.65;;;21.40;46.20;;;;;;5182292;28;20069;-59
2021/12/21 03:20:35;;;;;;;7.55;3.20;;;21.50;46.20;;;;;;5184280;28;20417;-59
2021/12/21 03:23:07;;;;;;;6.28;2.70;;;21.50;46.20;;;;;;5181724;28;20451;-56
2021/12/21 03:25:40;;;;;;;5.82;3.20;;;21.40;46.10;;;;;;5180073;28;20357;-58
2021/12/21 03:28:12;;;;;;;5.18;2.58;;;21.40;46.10;;;;;;5173096;28;20485;-59
2021/12/21 03:30:45;;;;;;;6.25;3.08;;;21.50;46.10;;;;;;5178921;28;20053;-59
2021/12/21 03:33:17;;;;;;;6.68;2.97;;;21.40;46.00;;;;;;5172145;28;20053;-58
2021/12/21 03:35:50;;;;;;;7.60;3.45;;;21.40;46.00;;;;;;5179777;28;20048;-59
2021/12/21 03:38:22;;;;;;;7.00;3.20;;;21.50;46.10;;;;;;5185805;28;20052;-59
2021/12/21 03:41:02;;;;;;;4.83;2.60;;;21.40;46.00;;;;;;5180695;28;20057;-58
2021/12/21 03:43:35;;;;;;;5.97;2.95;;;21.40;46.00;;;;;;5180130;28;20044;-58
2021/12/21 03:46:10;;;;;;;10.13;3.83;;;21.40;46.00;;;;;;5178709;28;20525;-59
2021/12/21 03:48:46;;;;;;;4.93;2.90;;;21.40;46.00;;;;;;5177716;28;20045;-59
2021/12/21 03:51:20;;;;;;;5.72;3.00;;;21.40;45.90;;;;;;5182849;28;20053;-58
2021/12/21 03:53:52;;;;;;;4.90;2.85;;;21.40;46.50;;;;;;5185842;28;20049;-57
2021/12/21 03:56:41;;;;;;;6.78;3.00;;;21.40;45.90;;;;;;5179877;28;20752;-57
2021/12/21 03:59:14;;;;;;;5.95;3.25;;;21.40;45.80;;;;;;5184184;28;20045;-57
2021/12/21 04:01:47;;;;;;;33.25;4.22;;;21.40;45.90;;;;;;5183326;28;20519;-59
2021/12/21 04:04:22;;;;;;;6.32;2.63;;;21.40;45.90;;;;;;5182431;28;20041;-58
2021/12/21 04:06:55;;;;;;;5.63;2.63;;;21.40;45.80;;;;;;5174976;28;20053;-59
2021/12/21 04:09:27;;;;;;;3.58;2.25;;;21.40;45.90;;;;;;5183424;28;20539;-58
2021/12/21 04:12:00;;;;;;;4.57;2.58;;;21.40;45.80;;;;;;5180747;28;20042;-58
2021/12/21 04:14:34;;;;;;;;;;;21.40;45.80;;;;;;5184787;28;20045;-58
2021/12/21 04:17:07;;;;;;;4.13;2.53;;;21.40;45.90;;;;;;5181063;28;20446;-58
2021/12/21 04:19:39;;;;;;;6.75;2.80;;;21.40;45.90;;;;;;5185562;28;20046;-59
2021/12/21 04:22:13;;;;;;;5.85;2.30;;;21.40;45.90;;;;;;5180575;28;20041;-57
2021/12/21 04:24:46;;;;;;;6.85;3.03;;;21.40;45.80;;;;;;5195519;28;20038;-57
2021/12/21 04:27:19;;;;;;;3.08;2.47;;;21.40;45.80;;;;;;5180794;28;20038;-60
2021/12/21 04:29:52;;;;;;;9.63;3.42;;;21.40;45.70;;;;;;5180917;28;20081;-56
2021/12/21 04:32:24;;;;;;;6.80;2.80;;;21.40;45.70;;;;;;5179157;28;20044;-59
2021/12/21 04:34:57;;;;;;;3.83;2.50;;;21.40;45.70;;;;;;5179179;28;20057;-56
2021/12/21 04:37:29;;;;;;;7.03;2.88;;;21.40;45.70;;;;;;5187236;28;20489;-58
2021/12/21 04:40:06;;;;;;;6.15;3.55;;;21.40;45.70;;;;;;5181740;28;20676;-58
2021/12/21 04:42:43;;;;;;;6.10;2.50;;;21.40;45.60;;;;;;5174715;28;20049;-58
2021/12/21 04:45:15;;;;;;;4.68;2.42;;;21.40;45.60;;;;;;5159772;28;20045;-57
2021/12/21 04:47:48;;;;;;;6.32;2.95;;;21.40;45.70;;;;;;5161946;28;20497;-58
2021/12/21 04:50:20;;;;;;;6.38;2.53;;;21.40;45.70;;;;;;5176981;28;20044;-58
2021/12/21 04:52:52;;;;;;;4.13;2.78;;;21.40;45.80;;;;;;5181970;28;20119;-59
2021/12/21 04:55:25;;;;;;;3.72;2.40;;;21.40;45.90;;;;;;5184326;28;20198;-59
2021/12/21 04:57:58;;;;;;;8.93;2.75;;;21.40;46.00;;;;;;5182111;28;20061;-58
2021/12/21 05:00:31;;;;;;;7.43;2.80;;;21.40;46.10;;;;;;5167148;28;20041;-59
2021/12/21 05:03:04;;;;;;;4.95;2.63;;;21.40;46.20;;;;;;5165896;28;20061;-58
2021/12/21 05:05:37;;;;;;;4.95;2.70;;;21.40;46.20;;;;;;5154877;28;20042;-55
2021/12/21 05:08:21;;;;;;;3.90;2.42;;;21.40;46.30;;;;;;5166012;28;22162;-59
2021/12/21 05:11:01;;;;;;;;;;;21.40;46.50;;;;;;5166609;28;20463;-57
2021/12/21 05:13:38;;;;;;;46.50;5.75;;;21.40;46.50;;;;;;5162348;28;20392;-59
2021/12/21 05:16:11;;;;;;;3.88;2.67;;;21.40;46.60;;;;;;5169164;28;20636;-58
2021/12/21 05:18:43;;;;;;;10.60;2.72;;;21.40;46.70;;;;;;5169771;28;20599;-59
2021/12/21 05:21:16;;;;;;;4.05;2.03;;;21.40;46.70;;;;;;5169153;28;20056;-58
2021/12/21 05:23:48;;;;;;;6.03;2.50;;;21.40;46.80;;;;;;5171249;28;20049;-57
2021/12/21 05:26:20;;;;;;;5.18;3.15;;;21.40;46.90;;;;;;5176630;28;20057;-58
2021/12/21 05:28:53;;;;;;;5.32;2.25;;;21.40;47.00;;;;;;5174330;28;20057;-58
2021/12/21 05:31:25;;;;;;;6.38;2.83;;;21.50;47.10;;;;;;5162814;28;20049;-59
2021/12/21 05:33:58;;;;;;;8.27;2.97;;;21.40;47.10;;;;;;5160642;28;20064;-59
2021/12/21 05:36:31;;;;;;;5.32;2.67;;;21.50;47.20;;;;;;5163298;28;20053;-59
2021/12/21 05:39:05;;;;;;;8.18;2.72;;;21.50;47.80;;;;;;5160979;28;20505;-58
2021/12/21 05:41:53;;;;;;;6.22;2.63;;;21.50;47.30;;;;;;5163103;28;20060;-57
2021/12/21 05:44:25;;;;;;;7.53;2.30;;;21.50;47.30;;;;;;5163428;28;20049;-57
2021/12/21 05:46:58;;;;;;;6.22;2.65;;;21.50;47.30;;;;;;5166361;28;20445;-57
2021/12/21 05:49:33;;;;;;;4.32;2.03;;;21.50;47.30;;;;;;5156140;28;20505;-58
2021/12/21 05:52:06;;;;;;;11.38;2.85;;;21.60;47.40;;;;;;5166239;28;20049;-58
2021/12/21 05:54:39;;;;;;;4.17;2.40;;;21.60;47.40;;;;;;5167868;28;20810;-52
2021/12/21 05:57:11;;;;;;;5.77;2.93;;;21.60;47.40;;;;;;5168577;28;20413;-58
2021/12/21 05:59:43;;;;;;;4.00;2.33;;;21.60;47.40;;;;;;5160904;28;20076;-58
2021/12/21 06:02:17;;;;;;;10.93;2.97;;;21.60;47.40;;;;;;5156781;28;20056;-57
2021/12/21 06:04:49;;;;;;;9.18;3.05;;;21.60;47.50;;;;;;5158995;28;20045;-58
2021/12/21 06:07:21;;;;;;;10.48;3.13;;;21.60;47.60;;;;;;5165176;28;20045;-57
2021/12/21 06:09:54;;;;;;;26.02;4.15;;;21.70;47.70;;;;;;5166697;28;20056;-58
2021/12/21 06:25:21;;;;;;;11.52;2.72;;;21.70;47.80;;;;;;5183722;28;20064;-59
2021/12/21 06:26:44;;;;;;;7.80;2.50;;;21.70;47.70;;;;;;5174184;28;20045;-58
2021/12/21 06:29:16;;;;;;;8.77;3.25;;;21.70;47.60;;;;;;5182480;28;20034;-59
2021/12/21 06:31:49;;;;;;;8.18;2.97;;;21.80;47.50;;;;;;5181116;28;20652;-58
2021/12/21 06:34:23;;;;;;;11.80;3.15;;;21.70;47.40;;;;;;5167565;28;20059;-57
2021/12/21 06:36:56;;;;;;;7.35;2.45;;;21.70;47.40;;;;;;5179484;28;20048;-59
2021/12/21 06:39:28;;;;;;;12.73;3.60;;;21.80;47.40;;;;;;5168732;28;20042;-59
2021/12/21 06:42:02;;;;;;;9.38;3.10;;;21.70;47.40;;;;;;5190933;28;20054;-58
2021/12/21 06:44:34;;;;;;;17.02;3.17;;;21.80;47.40;;;;;;5191817;28;20064;-57
2021/12/21 06:52:49;;;;;;;5.97;2.60;;;21.80;47.30;;;;;;5192870;28;20043;-59
2021/12/21 06:55:22;;;;;;;8.80;3.03;;;21.70;47.20;;;;;;5204340;28;20052;-57
2021/12/21 06:57:54;;;;;;;10.13;3.22;;;21.80;47.20;;;;;;5190482;28;20045;-58
2021/12/21 07:00:27;;;;;;;7.82;2.97;;;21.80;47.20;;;;;;5189190;28;20483;-59
2021/12/21 07:03:00;;;;;;;7.55;3.28;;;21.80;47.10;;;;;;5191817;28;20048;-58
2021/12/21 07:05:32;;;;;;;7.10;2.77;;;21.70;47.10;;;;;;5185843;28;20056;-58
2021/12/21 07:08:08;;;;;;;7.07;2.37;;;21.70;47.00;;;;;;5192942;28;20084;-59
2021/12/21 07:10:44;;;;;;;7.35;2.80;;;21.80;47.10;;;;;;5188375;28;20052;-58
2021/12/21 07:18:58;;;;;;;11.73;2.58;;;21.80;47.00;;;;;;5184991;28;20057;-59
2021/12/21 07:21:31;;;;;;;5.10;2.95;;;21.80;47.00;;;;;;5191124;28;20441;-58
2021/12/21 07:24:04;;;;;;;5.15;2.50;;;21.70;46.90;;;;;;5189696;28;20046;-59
2021/12/21 07:26:37;;;;;;;5.20;2.80;;;21.80;47.00;;;;;;5188066;28;20041;-59
2021/12/21 07:29:09;;;;;;;6.72;2.55;;;21.70;46.90;;;;;;5190333;28;20056;-58
2021/12/21 07:31:42;;;;;;;4.50;2.60;;;21.70;46.90;;;;;;5189457;28;20064;-58
2021/12/21 07:34:15;;;;;;;5.22;2.55;;;21.80;47.00;;;;;;5189425;28;20045;-57
2021/12/21 07:36:47;;;;;;;4.80;2.42;;;21.80;47.00;;;;;;5189297;28;20064;-58
2021/12/21 07:39:20;;;;;;;4.38;2.45;;;21.80;46.90;;;;;;5192895;28;20049;-57
2021/12/21 07:42:12;;;;;;;5.65;2.10;;;21.80;46.90;;;;;;5193322;28;20045;-58
2021/12/21 07:44:45;;;;;;;3.80;2.20;;;21.80;46.90;;;;;;5192320;28;20323;-55
2021/12/21 07:47:18;;;;;;;5.83;2.50;;;21.80;47.00;;;;;;5190801;28;20045;-58
2021/12/21 07:49:50;;;;;;;5.20;2.33;;;21.80;46.90;;;;;;5192421;28;20501;-59
2021/12/21 07:52:23;;;;;;;5.10;2.27;;;21.80;46.90;;;;;;5191158;28;20069;-59
2021/12/21 07:54:55;;;;;;;3.85;2.67;;;21.80;46.90;;;;;;5189989;28;20420;-59
2021/12/21 07:57:28;;;;;;;4.78;2.22;;;21.80;46.90;;;;;;5192796;28;20042;-59
2021/12/21 08:00:03;;;;;;;4.25;2.40;;;21.80;46.90;;;;;;5193648;28;20057;-60
2021/12/21 08:02:43;;;;;;;3.28;2.40;;;21.80;47.50;;;;;;5186658;28;20050;-59
2021/12/21 08:05:17;;;;;;;9.47;2.60;;;21.80;46.90;;;;;;5191792;28;20045;-59
2021/12/21 08:07:55;;;;;;;5.50;2.35;;;21.80;46.90;;;;;;5190612;28;20291;-59
2021/12/21 08:10:40;;;;;;;3.83;2.40;;;21.80;46.90;;;;;;5190875;28;20046;-59
2021/12/21 08:13:13;;;;;;;6.32;2.17;;;21.80;46.90;;;;;;5191620;28;20045;-59
2021/12/21 08:15:47;;;;;;;4.25;2.10;;;21.80;46.80;;;;;;5197986;28;20052;-59
2021/12/21 08:18:19;;;;;;;;;;;21.80;46.80;;;;;;5184273;28;20045;-58
2021/12/21 08:20:52;;;;;;;3.83;2.20;;;21.70;46.80;;;;;;5176977;28;19931;-58
2021/12/21 08:23:25;;;;;;;5.50;2.63;;;21.80;46.90;;;;;;5177893;28;20052;-59
2021/12/21 08:25:58;;;;;;;4.65;2.63;;;21.80;46.90;;;;;;5175812;28;20809;-59
2021/12/21 08:28:31;;;;;;;7.20;2.95;;;21.80;46.90;;;;;;5180361;28;20053;-57
2021/12/21 08:31:04;;;;;;;4.60;2.53;;;21.80;46.90;;;;;;5189217;28;20053;-59
2021/12/21 08:33:37;;;;;;;5.23;2.30;;;21.80;46.90;;;;;;5190080;28;20992;-59
2021/12/21 08:36:10;;;;;;;4.68;2.40;;;21.80;46.80;;;;;;5181539;28;20056;-58
2021/12/21 08:38:44;;;;;;;6.13;2.30;;;21.80;46.90;;;;;;5189659;28;20049;-58
2021/12/21 08:41:16;;;;;;;3.75;2.25;;;21.80;46.80;;;;;;5187517;28;20065;-59
2021/12/21 08:43:50;;;;;;;7.13;2.20;;;21.80;46.90;;;;;;5191108;28;20034;-58
2021/12/21 08:46:22;;;;;;;;;;;21.80;46.80;;;;;;5180881;28;20050;-58
2021/12/21 08:48:54;;;;;;;5.68;2.78;;;21.80;46.80;;;;;;5175547;28;19925;-59
2021/12/21 08:51:27;;;;;;;5.22;1.85;;;21.80;46.90;;;;;;5181283;28;20065;-59
2021/12/21 08:53:59;;;;;;;4.35;2.63;;;21.80;46.80;;;;;;5187131;28;20046;-58
2021/12/21 08:56:32;;;;;;;5.65;2.40;;;21.90;46.90;;;;;;5188959;28;20051;-58
2021/12/21 08:59:05;;;;;;;5.72;2.53;;;21.90;46.90;;;;;;5188612;28;20654;-59
2021/12/21 09:01:37;;;;;;;4.38;2.40;;;21.90;46.80;;;;;;5192772;28;20033;-59
2021/12/21 09:04:10;;;;;;;4.25;2.78;;;21.90;46.80;;;;;;5190239;28;20049;-59
2021/12/21 09:06:43;;;;;;;5.40;2.65;;;21.90;47.40;;;;;;5190757;28;20049;-59
2021/12/21 09:09:15;;;;;;;4.75;2.47;;;21.90;46.80;;;;;;5185658;28;20550;-59
2021/12/21 09:11:49;;;;;;;4.95;2.50;;;21.90;46.80;;;;;;5179171;28;20497;-58
2021/12/21 09:14:22;;;;;;;3.80;2.13;;;21.90;46.80;;;;;;5192059;28;20057;-59
2021/12/21 09:16:54;;;;;;;2.90;2.25;;;21.90;46.70;;;;;;5193809;28;20062;-59
2021/12/21 09:19:27;;;;;;;3.08;2.17;;;21.90;46.80;;;;;;5190263;28;20615;-58
2021/12/21 09:22:04;;;;;;;5.68;2.55;;;21.90;46.70;;;;;;5192103;28;20046;-56
2021/12/21 09:24:37;;;;;;;5.60;2.17;;;21.90;46.70;;;;;;5190920;28;20413;-59
2021/12/21 09:27:11;;;;;;;4.82;2.40;;;21.90;46.70;;;;;;5189440;28;20046;-59
2021/12/21 09:29:45;;;;;;;2.80;2.05;;;21.90;46.70;;;;;;5193230;28;20053;-59
2021/12/21 09:32:18;;;;;;;5.88;1.95;;;22.00;46.80;;;;;;5191937;28;20049;-59
2021/12/21 09:34:50;;;;;;;3.80;2.20;;;21.90;46.70;;;;;;5188742;28;20401;-58
2021/12/21 09:37:23;;;;;;;6.32;2.10;;;21.90;46.70;;;;;;5177898;28;20046;-61
2021/12/21 09:39:56;;;;;;;4.23;2.43;;;21.90;46.60;;;;;;5185181;28;20049;-59
2021/12/21 09:42:30;;;;;;;3.47;2.05;;;21.90;46.60;;;;;;5189057;28;20549;-58
2021/12/21 09:45:09;;;;;;;2.53;1.82;;;22.00;46.70;;;;;;4689773;28;10002957;-60
2021/12/21 09:47:42;;;;;;;;;;;22.00;46.70;;;;;;5181638;28;20448;-59
2021/12/21 09:50:17;;;;;;;4.03;2.08;;;21.90;46.60;;;;;;5157707;28;20662;-59
2021/12/21 09:52:49;;;;;;;4.57;2.20;;;22.00;46.70;;;;;;5186271;28;20045;-57
2021/12/21 09:55:22;;;;;;;3.22;2.20;;;22.00;46.60;;;;;;5184974;28;20596;-60
2021/12/21 09:57:55;;;;;;;3.30;2.25;;;22.00;46.60;;;;;;5184664;28;20055;-59
2021/12/21 10:00:32;;;;;;;4.10;2.13;;;22.00;46.60;;;;;;5187368;28;20046;-60
2021/12/21 10:03:07;;;;;;;5.10;2.05;;;22.00;46.60;;;;;;5185739;28;20045;-58
2021/12/21 10:05:42;;;;;;;3.53;2.25;;;22.00;46.60;;;;;;5190104;28;20608;-58
2021/12/21 10:08:19;;;;;;;3.97;2.45;;;22.00;46.70;;;;;;5189115;28;20042;-58
2021/12/21 10:10:52;;;;;;;4.75;2.40;;;22.00;46.70;;;;;;5187221;28;20045;-58
2021/12/21 10:13:26;;;;;;;3.50;2.28;;;22.00;46.70;;;;;;5184055;28;20060;-56
2021/12/21 10:16:03;;;;;;;2.65;2.30;;;22.00;46.70;;;;;;5181596;28;20057;-58
2021/12/21 10:18:41;;;;;;;4.93;2.92;;;22.00;46.70;;;;;;5186733;28;20065;-58
2021/12/21 10:21:15;;;;;;;3.42;2.40;;;22.00;46.70;;;;;;5186197;28;20072;-58
2021/12/21 10:23:50;;;;;;;3.60;2.20;;;22.00;46.70;;;;;;5179342;28;20049;-58
2021/12/21 10:26:30;;;;;;;3.35;2.03;;;22.00;46.80;;;;;;5179763;28;20044;-58
2021/12/21 10:29:06;;;;;;;3.78;2.15;;;22.10;46.80;;;;;;5181484;28;21172;-57
2021/12/21 10:31:41;;;;;;;3.38;2.13;;;22.10;46.80;;;;;;5178541;28;20048;-58
2021/12/21 10:34:18;;;;;;;5.22;2.25;;;22.00;46.70;;;;;;5189208;28;20041;-58
2021/12/21 10:36:52;;;;;;;3.28;2.33;;;22.00;46.70;;;;;;5190007;28;20037;-56
2021/12/21 10:39:28;;;;;;;4.95;1.95;;;22.10;46.80;;;;;;5192170;28;20045;-58
2021/12/21 10:42:03;;;;;;;5.07;2.35;;;22.10;46.70;;;;;;5187566;28;20045;-58
2021/12/21 10:44:37;;;;;;;3.20;2.10;;;22.10;46.70;;;;;;5188299;28;20049;-58
2021/12/21 10:47:12;;;;;;;3.53;2.10;;;22.10;46.60;;;;;;5187626;28;20038;-57
2021/12/21 10:49:44;;;;;;;4.50;2.08;;;22.10;46.60;;;;;;5182040;28;20042;-56
2021/12/21 10:52:21;;;;;;;4.20;1.90;;;22.20;46.60;;;;;;5186537;28;20560;-58
2021/12/21 10:54:54;;;;;;;4.57;2.25;;;22.20;46.50;;;;;;5181699;28;20413;-58
2021/12/21 10:57:31;;;;;;;3.50;2.28;;;22.20;46.40;;;;;;5184321;28;20097;-58
2021/12/21 11:00:14;;;;;;;3.53;2.13;;;22.30;46.40;;;;;;5180834;28;20045;-58
2021/12/21 11:02:52;;;;;;;3.33;2.33;;;22.30;46.40;;;;;;5175263;28;20056;-57
2021/12/21 11:05:26;;;;;;;4.43;2.20;;;22.40;46.40;;;;;;5164352;28;20052;-58
2021/12/21 11:08:05;;;;;;;3.78;2.13;;;22.40;46.40;;;;;;5169320;28;20053;-57
2021/12/21 11:10:38;;;;;;;3.08;2.35;;;22.40;46.30;;;;;;5161148;28;20053;-59
2021/12/21 11:13:15;;;;;;;2.65;2.25;;;22.40;46.30;;;;;;5180614;28;20056;-59
2021/12/21 11:15:53;;;;;;;2.40;2.20;;;22.50;46.40;;;;;;5182365;28;20052;-59
2021/12/21 11:18:27;;;;;;;3.15;2.00;;;22.50;46.30;;;;;;5186300;28;20045;-57
2021/12/21 11:21:00;;;;;;;3.97;2.10;;;22.50;46.30;;;;;;5189206;28;20060;-59
2021/12/21 11:23:34;;;;;;;3.35;1.92;;;22.60;46.40;;;;;;5184306;28;20050;-58
2021/12/21 11:26:09;;;;;;;3.35;2.85;;;22.70;46.40;;;;;;5182117;28;20045;-57
2021/12/21 11:28:42;;;;;;;7.47;2.28;;;22.70;46.30;;;;;;5198106;28;20509;-58
2021/12/21 11:31:17;;;;;;;5.05;2.20;;;22.70;46.20;;;;;;5182312;28;20394;-58
2021/12/21 11:33:56;;;;;;;3.25;2.22;;;22.70;46.30;;;;;;5187098;28;20489;-59
2021/12/21 11:39:19;;;;;;;2.88;2.25;;;22.80;46.20;;;;;;5183287;28;20440;-60
2021/12/21 11:41:51;;;;;;;2.25;1.77;;;22.80;46.10;;;;;;5185001;28;20064;-59
2021/12/21 11:44:29;;;;;;;3.50;2.17;;;22.90;45.90;;;;;;5182077;28;20041;-57
2021/12/21 11:47:06;;;;;;;5.13;2.03;;;23.00;45.60;;;;;;5180151;28;20057;-60
2021/12/21 11:49:46;;;;;;;2.60;2.10;;;23.10;45.50;;;;;;5185641;28;20049;-59
2021/12/21 11:52:22;;;;;;;3.75;1.80;;;23.10;45.50;;;;;;5184940;28;20061;-57
2021/12/21 11:55:07;;;;;;;2.78;2.13;;;23.10;45.40;;;;;;5182926;28;21060;-60
2021/12/21 11:57:50;;;;;;;4.07;2.50;;;23.10;45.50;;;;;;5186975;28;20045;-60
2021/12/21 12:00:34;;;;;;;4.95;2.28;;;23.00;45.40;;;;;;5181602;28;20053;-56
2021/12/21 12:03:13;;;;;;;3.45;2.28;;;23.00;45.40;;;;;;5180253;28;20520;-60
2021/12/21 12:06:07;;;;;;;3.72;2.33;;;23.00;45.30;;;;;;5182739;28;20046;-57
2021/12/21 12:08:44;;;;;;;;;;;23.00;45.30;;;;;;5182781;28;20045;-59
2021/12/21 12:11:39;;;;;;;4.47;2.67;;;22.90;45.30;;;;;;5182074;28;19924;-59
2021/12/21 12:14:22;;;;;;;3.85;2.17;;;22.90;45.40;;;;;;5184382;28;20389;-59
2021/12/21 12:16:57;;;;;;;4.18;2.33;;;22.90;45.40;;;;;;5159942;28;20754;-58
2021/12/21 12:19:32;;;;;;;3.53;2.63;;;22.90;45.40;;;;;;5161424;28;20061;-59
2021/12/21 12:22:09;;;;;;;3.10;2.47;;;22.90;45.50;;;;;;5156492;28;20053;-59
2021/12/21 12:24:43;;;;;;;4.97;2.53;;;22.90;45.40;;;;;;5143488;28;20060;-59
2021/12/21 12:27:21;;;;;;;6.80;2.50;;;22.90;45.50;;;;;;5137731;28;20811;-59
2021/12/21 12:30:10;;;;;;;5.93;2.38;;;22.90;45.50;;;;;;5149056;28;20045;-57
2021/12/21 12:33:06;;;;;;;5.38;2.67;;;22.90;45.60;;;;;;5141275;28;26145;-59
2021/12/21 12:35:42;;;;;;;3.92;2.42;;;22.90;45.60;;;;;;5138036;28;20100;-59
2021/12/21 12:38:22;;;;;;;4.85;2.35;;;22.90;45.70;;;;;;5154378;28;20093;-58
2021/12/21 12:40:58;;;;;;;3.10;2.38;;;22.90;45.80;;;;;;5143321;28;20327;-58
2021/12/21 12:43:32;;;;;;;4.72;2.35;;;22.90;45.80;;;;;;5147900;28;20676;-55
2021/12/21 12:46:08;;;;;;;4.20;2.42;;;22.80;45.80;;;;;;5150203;28;20046;-60
2021/12/21 12:48:47;;;;;;;9.70;2.78;;;22.80;45.90;;;;;;5142711;28;20042;-56
2021/12/21 12:51:37;;;;;;;9.05;3.25;;;22.80;45.90;;;;;;5135915;28;20755;-58
2021/12/21 12:54:14;;;;;;;5.40;2.65;;;22.80;45.90;;;;;;5140355;28;20041;-58
2021/12/21 12:56:48;;;;;;;4.40;2.40;;;22.80;45.90;;;;;;5176335;28;20057;-59
2021/12/21 12:59:20;;;;;;;5.15;2.58;;;22.80;46.00;;;;;;5138147;28;20059;-59
2021/12/21 13:01:58;;;;;;;4.70;2.60;;;22.80;46.10;;;;;;5150855;28;20060;-59
2021/12/21 13:04:32;;;;;;;3.50;2.22;;;22.80;46.10;;;;;;5135754;28;20139;-59
2021/12/21 13:07:04;;;;;;;3.83;2.38;;;22.80;46.10;;;;;;5127739;28;20050;-59
2021/12/21 13:09:37;;;;;;;5.03;2.33;;;22.70;46.00;;;;;;5140799;28;21539;-58
2021/12/21 13:12:11;;;;;;;5.93;3.42;;;22.70;46.00;;;;;;5141525;28;20501;-58
2021/12/21 13:14:55;;;;;;;5.10;2.53;;;22.70;46.10;;;;;;5136630;28;26301;-58
2021/12/21 13:17:28;;;;;;;10.43;2.70;;;22.70;46.00;;;;;;5133021;28;20049;-58
2021/12/21 13:20:02;;;;;;;;;;;22.70;46.30;;;;;;5130407;28;20049;-59
2021/12/21 13:22:35;;;;;;;10.10;2.60;;;22.60;46.70;;;;;;5154415;28;19921;-59
2021/12/21 13:25:08;;;;;;;4.18;2.35;;;22.60;46.90;;;;;;5154042;28;20390;-57
2021/12/21 13:27:40;;;;;;;11.95;2.53;;;22.60;46.90;;;;;;5144511;28;20052;-58
2021/12/21 13:30:18;;;;;;;14.93;2.75;;;22.60;47.20;;;;;;5148461;28;20568;-58
2021/12/21 13:32:56;;;;;;;8.95;2.58;;;22.60;47.30;;;;;;5158644;28;20045;-57
2021/12/21 13:35:31;;;;;;;18.35;3.33;;;22.60;47.00;;;;;;5136287;28;22522;-58
2021/12/21 13:38:14;;;;;;;14.63;2.90;;;22.60;47.50;;;;;;5139123;28;20072;-57
2021/12/21 13:41:06;;;;;;;16.67;2.80;;;22.70;47.80;;;;;;5143264;28;20038;-59
2021/12/21 13:43:50;;;;;;;23.65;3.50;;;22.70;47.90;;;;;;5140609;28;20400;-62
2021/12/21 13:46:23;;;;;;;16.45;3.35;;;22.70;48.10;;;;;;5141315;28;20045;-58
2021/12/21 13:48:57;;;;;;;12.27;2.83;;;22.80;48.40;;;;;;5154772;28;20046;-58
2021/12/21 13:51:31;;;;;;;21.95;2.72;;;22.80;48.60;;;;;;5131914;28;20069;-58
2021/12/21 13:54:03;;;;;;;20.80;2.78;;;23.00;48.60;;;;;;5137935;28;20050;-59
2021/12/21 13:56:37;;;;;;;12.63;2.85;;;23.00;48.50;;;;;;5138206;28;20060;-60
2021/12/21 13:59:10;;;;;;;12.65;2.85;;;23.00;48.70;;;;;;5129670;28;20061;-58
2021/12/21 14:01:45;;;;;;;;;;;22.90;49.10;;;;;;5139776;28;20413;-59
2021/12/21 14:04:26;;;;;;;21.13;3.03;;;22.90;49.30;;;;;;4099961;28;10000773;-59
2021/12/21 14:07:00;;;;;;;13.52;2.78;;;22.80;49.60;;;;;;5154784;28;20049;-59
2021/12/21 14:09:32;;;;;;;;;;;22.80;49.70;;;;;;5148806;28;20378;-60
2021/12/21 14:12:12;;;;;;;15.60;3.28;;;22.80;49.90;;;;;;5156477;28;21247;-59
2021/12/21 14:14:44;;;;;;;13.90;3.42;;;22.70;49.60;;;;;;5158395;28;20727;-58
2021/12/21 14:17:17;;;;;;;11.70;2.95;;;22.70;49.40;;;;;;5175053;28;20056;-59
2021/12/21 14:19:58;;;;;;;9.90;2.63;;;22.70;49.20;;;;;;5137976;28;20048;-59